Lacrosse, WA

11:23 PM PDT on August 29, 2014 (GMT -0700)
Central Ferry | Change Station
CLOSE
Current Station
Personal Weather Station
Location: Pomeroy, WA
Elevation: 671 ft
Nearby Weather Stations

Elev 671 ft 46.67 °N, 117.75 °W | Updated 13 minutes ago

Mostly Cloudy
Mostly Cloudy
71.7 °F
Feels Like 77 °F
N
7.0
Wind Variable Wind from SSW
Gusts 11.0 mph

Today
High -- | Low -- °F
--% Chance of Precip.
Yesterday
High -- | Low -- °F
Precip. -- in
6:07 AM 7:36 PM
Waxing Crescent, 19% visible
Pressure 29.86 in
Visibility 10.0 miles
Clouds Clear
Heat Index 77 °F
Dew Point 48 °F
Humidity 43%
Rainfall 0.00 in
Snow Depth Not available.
UV 0 out of 12
Pollen 7.60 out of 12
Air Quality Not available.
Flu Activity Not available.
METAR KPUW 300553Z AUTO 26008KT 10SM CLR 19/04 A2990 RMK AO2 SLP109 T01940039 10278 20194 53013

More Conditions Fewer Conditions

Pressure 29.86 in
Visibility 10.0 miles
Clouds Clear
Heat Index 77 °F
Dew Point 48 °F
Humidity 43%
Rainfall 0.00 in
Snow Depth Not available.
UV 0 out of 12
Pollen 7.60 out of 12
Air Quality Not available.
Flu Activity Not available.
METAR KPUW 300553Z AUTO 26008KT 10SM CLR 19/04 A2990 RMK AO2 SLP109 T01940039 10278 20194 53013

More Conditions Fewer Conditions

10-Day Weather Forecast

Almanac

Astronomy

Aug. 29, 2014 Rise Set
Actual Time 6:07 AM PDT 7:36 PM PDT
Civil Twilight 5:35 AM PDT 8:07 PM PDT
Nautical Twilight 4:57 AM PDT 8:45 PM PDT
Astronomical Twilight 4:15 AM PDT 9:26 PM PDT
Moon 10:18 AM PDT (8/29) 9:18 PM PDT (8/29)
Length of Visible Light 14h 31m
Length of Day
13h 28m
Tomorrow will be 3m 11s shorter.
Waxing Crescent, 19% of the Moon is Illuminated
Aug 30
Waxing Crescent
Sep 2
First Quarter
Sep 8
Full
Sep 15
Last Quarter
Sep 24
New

Community

WunderPhotos

Upload Photos

1,748,465 photos uploaded!

Nearby

Snow Depth

Station Depth Elevation
Spruce Springs 0 in 5700 ft
Sourdough Gulch 0 in 4000 ft
Quartz Peak 1 in 4700 ft
Trough 1 in 5300 ft
Upper Wheeler 0 in 4400 ft

Earthquake Activity

City Distance Mag. Time & Date
No recent earthquake activity has been reported nearby.
Minimum magnitude displayed is 2.5.

Coastal Water Temperatures

Place Temperature
No Stations Reporting

Nearby Weather Stations